sensor_id;sensor_type;location;lat;lon;timestamp;P1;durP1;ratioP1;P2;durP2;ratioP2
70406;SDS011;57821;52.202;0.154;2023-02-23T00:01:14;10.90;;;4.28;;
70406;SDS011;57821;52.202;0.154;2023-02-23T00:03:45;9.38;;;3.83;;
70406;SDS011;57821;52.202;0.154;2023-02-23T00:06:12;12.55;;;3.65;;
70406;SDS011;57821;52.202;0.154;2023-02-23T00:08:38;12.00;;;4.28;;
70406;SDS011;57821;52.202;0.154;2023-02-23T00:11:06;10.40;;;3.90;;
70406;SDS011;57821;52.202;0.154;2023-02-23T00:13:35;15.95;;;4.38;;
70406;SDS011;57821;52.202;0.154;2023-02-23T00:16:07;13.65;;;4.03;;
70406;SDS011;57821;52.202;0.154;2023-02-23T00:18:35;15.02;;;3.90;;
70406;SDS011;57821;52.202;0.154;2023-02-23T00:21:02;20.38;;;4.18;;
70406;SDS011;57821;52.202;0.154;2023-02-23T00:23:29;13.43;;;3.58;;
70406;SDS011;57821;52.202;0.154;2023-02-23T00:25:55;16.25;;;3.08;;
70406;SDS011;57821;52.202;0.154;2023-02-23T00:28:21;18.50;;;2.90;;
70406;SDS011;57821;52.202;0.154;2023-02-23T00:30:48;10.88;;;2.80;;
70406;SDS011;57821;52.202;0.154;2023-02-23T00:33:15;9.50;;;2.95;;
70406;SDS011;57821;52.202;0.154;2023-02-23T00:35:41;11.65;;;2.63;;
70406;SDS011;57821;52.202;0.154;2023-02-23T00:38:08;12.73;;;3.05;;
70406;SDS011;57821;52.202;0.154;2023-02-23T00:40:38;13.35;;;2.78;;
70406;SDS011;57821;52.202;0.154;2023-02-23T00:43:05;12.15;;;3.10;;
70406;SDS011;57821;52.202;0.154;2023-02-23T00:45:31;16.05;;;3.85;;
70406;SDS011;57821;52.202;0.154;2023-02-23T00:47:58;14.93;;;3.33;;
70406;SDS011;57821;52.202;0.154;2023-02-23T00:50:24;16.98;;;3.60;;
70406;SDS011;57821;52.202;0.154;2023-02-23T00:52:51;19.13;;;6.18;;
70406;SDS011;57821;52.202;0.154;2023-02-23T00:55:17;14.50;;;4.45;;
70406;SDS011;57821;52.202;0.154;2023-02-23T00:57:44;13.35;;;3.80;;
70406;SDS011;57821;52.202;0.154;2023-02-23T01:00:10;14.45;;;3.92;;
70406;SDS011;57821;52.202;0.154;2023-02-23T01:02:37;15.90;;;4.28;;
70406;SDS011;57821;52.202;0.154;2023-02-23T01:05:04;13.65;;;4.65;;
70406;SDS011;57821;52.202;0.154;2023-02-23T01:07:31;20.63;;;5.00;;
70406;SDS011;57821;52.202;0.154;2023-02-23T01:09:57;12.88;;;4.75;;
70406;SDS011;57821;52.202;0.154;2023-02-23T01:12:24;13.38;;;4.60;;
70406;SDS011;57821;52.202;0.154;2023-02-23T01:14:50;12.18;;;4.45;;
70406;SDS011;57821;52.202;0.154;2023-02-23T01:17:17;19.33;;;4.68;;
70406;SDS011;57821;52.202;0.154;2023-02-23T01:19:43;15.90;;;4.47;;
70406;SDS011;57821;52.202;0.154;2023-02-23T01:22:10;15.20;;;5.10;;
70406;SDS011;57821;52.202;0.154;2023-02-23T01:24:38;15.43;;;5.13;;
70406;SDS011;57821;52.202;0.154;2023-02-23T01:27:04;14.50;;;6.38;;
70406;SDS011;57821;52.202;0.154;2023-02-23T01:29:32;13.57;;;6.18;;
70406;SDS011;57821;52.202;0.154;2023-02-23T01:31:59;15.15;;;6.15;;
70406;SDS011;57821;52.202;0.154;2023-02-23T01:34:28;16.00;;;6.55;;
70406;SDS011;57821;52.202;0.154;2023-02-23T01:36:55;22.80;;;6.70;;
70406;SDS011;57821;52.202;0.154;2023-02-23T01:39:22;14.98;;;7.32;;
70406;SDS011;57821;52.202;0.154;2023-02-23T01:41:48;14.77;;;7.43;;
70406;SDS011;57821;52.202;0.154;2023-02-23T01:46:45;21.77;;;8.00;;
70406;SDS011;57821;52.202;0.154;2023-02-23T01:49:18;15.10;;;7.40;;
70406;SDS011;57821;52.202;0.154;2023-02-23T01:51:49;19.02;;;7.55;;
70406;SDS011;57821;52.202;0.154;2023-02-23T01:54:32;16.27;;;7.30;;
70406;SDS011;57821;52.202;0.154;2023-02-23T01:57:04;15.98;;;6.85;;
70406;SDS011;57821;52.202;0.154;2023-02-23T01:59:45;18.40;;;7.03;;
70406;SDS011;57821;52.202;0.154;2023-02-23T02:04:46;18.63;;;6.57;;
70406;SDS011;57821;52.202;0.154;2023-02-23T02:07:14;20.77;;;7.10;;
70406;SDS011;57821;52.202;0.154;2023-02-23T02:09:46;13.68;;;5.10;;
70406;SDS011;57821;52.202;0.154;2023-02-23T02:12:14;19.38;;;5.28;;
70406;SDS011;57821;52.202;0.154;2023-02-23T02:14:42;13.95;;;5.28;;
70406;SDS011;57821;52.202;0.154;2023-02-23T02:17:11;12.68;;;4.68;;
70406;SDS011;57821;52.202;0.154;2023-02-23T02:26:08;11.13;;;4.45;;
70406;SDS011;57821;52.202;0.154;2023-02-23T02:44:50;17.85;;;4.40;;
70406;SDS011;57821;52.202;0.154;2023-02-23T02:48:05;10.02;;;4.72;;
70406;SDS011;57821;52.202;0.154;2023-02-23T02:53:06;12.55;;;4.45;;
70406;SDS011;57821;52.202;0.154;2023-02-23T02:55:35;14.18;;;4.28;;
70406;SDS011;57821;52.202;0.154;2023-02-23T02:58:05;13.98;;;4.18;;
70406;SDS011;57821;52.202;0.154;2023-02-23T03:00:35;9.77;;;4.35;;
70406;SDS011;57821;52.202;0.154;2023-02-23T03:03:04;11.57;;;4.00;;
70406;SDS011;57821;52.202;0.154;2023-02-23T03:05:41;17.75;;;5.07;;
70406;SDS011;57821;52.202;0.154;2023-02-23T03:11:12;14.60;;;4.72;;
70406;SDS011;57821;52.202;0.154;2023-02-23T03:16:38;14.48;;;4.53;;
70406;SDS011;57821;52.202;0.154;2023-02-23T03:21:53;17.35;;;4.43;;
70406;SDS011;57821;52.202;0.154;2023-02-23T03:27:39;9.80;;;3.83;;
70406;SDS011;57821;52.202;0.154;2023-02-23T03:32:46;12.13;;;4.65;;
70406;SDS011;57821;52.202;0.154;2023-02-23T03:38:03;10.52;;;3.97;;
70406;SDS011;57821;52.202;0.154;2023-02-23T03:40:36;14.00;;;4.28;;
70406;SDS011;57821;52.202;0.154;2023-02-23T03:43:06;13.82;;;4.57;;
70406;SDS011;57821;52.202;0.154;2023-02-23T03:45:37;11.40;;;4.47;;
70406;SDS011;57821;52.202;0.154;2023-02-23T03:48:06;15.32;;;4.10;;
70406;SDS011;57821;52.202;0.154;2023-02-23T03:50:37;15.18;;;4.10;;
70406;SDS011;57821;52.202;0.154;2023-02-23T03:53:34;11.93;;;4.50;;
70406;SDS011;57821;52.202;0.154;2023-02-23T03:56:07;20.88;;;4.88;;
70406;SDS011;57821;52.202;0.154;2023-02-23T03:58:38;13.48;;;3.67;;
70406;SDS011;57821;52.202;0.154;2023-02-23T04:03:38;9.55;;;3.30;;
70406;SDS011;57821;52.202;0.154;2023-02-23T04:06:09;14.27;;;4.25;;
70406;SDS011;57821;52.202;0.154;2023-02-23T04:08:38;13.82;;;4.32;;
70406;SDS011;57821;52.202;0.154;2023-02-23T04:11:11;13.52;;;3.97;;
70406;SDS011;57821;52.202;0.154;2023-02-23T04:13:59;11.05;;;3.70;;
70406;SDS011;57821;52.202;0.154;2023-02-23T04:16:29;14.80;;;4.32;;
70406;SDS011;57821;52.202;0.154;2023-02-23T04:18:57;12.30;;;4.70;;
70406;SDS011;57821;52.202;0.154;2023-02-23T04:21:24;10.80;;;3.45;;
70406;SDS011;57821;52.202;0.154;2023-02-23T04:23:51;11.25;;;4.03;;
70406;SDS011;57821;52.202;0.154;2023-02-23T04:26:17;11.57;;;3.67;;
70406;SDS011;57821;52.202;0.154;2023-02-23T04:28:44;10.07;;;3.03;;
70406;SDS011;57821;52.202;0.154;2023-02-23T04:31:10;15.43;;;3.22;;
70406;SDS011;57821;52.202;0.154;2023-02-23T04:33:37;11.82;;;1.95;;
70406;SDS011;57821;52.202;0.154;2023-02-23T04:36:04;10.75;;;2.15;;
70406;SDS011;57821;52.202;0.154;2023-02-23T04:38:30;9.05;;;1.80;;
70406;SDS011;57821;52.202;0.154;2023-02-23T04:40:57;14.18;;;1.48;;
70406;SDS011;57821;52.202;0.154;2023-02-23T04:43:23;14.65;;;2.20;;
70406;SDS011;57821;52.202;0.154;2023-02-23T04:45:50;11.10;;;1.58;;
70406;SDS011;57821;52.202;0.154;2023-02-23T04:48:16;9.88;;;1.40;;
70406;SDS011;57821;52.202;0.154;2023-02-23T04:50:43;11.20;;;1.35;;
70406;SDS011;57821;52.202;0.154;2023-02-23T04:53:09;12.57;;;1.35;;
70406;SDS011;57821;52.202;0.154;2023-02-23T04:55:36;13.48;;;1.80;;
70406;SDS011;57821;52.202;0.154;2023-02-23T04:58:03;7.78;;;1.60;;
70406;SDS011;57821;52.202;0.154;2023-02-23T05:00:29;12.20;;;1.45;;
70406;SDS011;57821;52.202;0.154;2023-02-23T05:02:56;9.48;;;1.40;;
70406;SDS011;57821;52.202;0.154;2023-02-23T05:05:23;8.80;;;1.60;;
70406;SDS011;57821;52.202;0.154;2023-02-23T05:07:49;11.07;;;1.38;;
70406;SDS011;57821;52.202;0.154;2023-02-23T05:10:16;13.32;;;1.42;;
70406;SDS011;57821;52.202;0.154;2023-02-23T05:12:43;14.57;;;1.90;;
70406;SDS011;57821;52.202;0.154;2023-02-23T05:15:09;15.60;;;2.08;;
70406;SDS011;57821;52.202;0.154;2023-02-23T05:17:37;12.80;;;1.50;;
70406;SDS011;57821;52.202;0.154;2023-02-23T05:20:05;21.33;;;2.40;;
70406;SDS011;57821;52.202;0.154;2023-02-23T05:22:32;15.95;;;1.45;;
70406;SDS011;57821;52.202;0.154;2023-02-23T05:24:59;13.88;;;1.30;;
70406;SDS011;57821;52.202;0.154;2023-02-23T05:27:25;12.00;;;1.45;;
70406;SDS011;57821;52.202;0.154;2023-02-23T05:29:52;14.57;;;1.50;;
70406;SDS011;57821;52.202;0.154;2023-02-23T05:32:18;12.63;;;2.45;;
70406;SDS011;57821;52.202;0.154;2023-02-23T05:34:44;12.25;;;1.95;;
70406;SDS011;57821;52.202;0.154;2023-02-23T05:37:11;6.78;;;1.20;;
70406;SDS011;57821;52.202;0.154;2023-02-23T05:39:38;10.07;;;1.20;;
70406;SDS011;57821;52.202;0.154;2023-02-23T05:42:05;9.40;;;1.35;;
70406;SDS011;57821;52.202;0.154;2023-02-23T05:44:31;12.95;;;2.38;;
70406;SDS011;57821;52.202;0.154;2023-02-23T05:46:58;10.32;;;1.48;;
70406;SDS011;57821;52.202;0.154;2023-02-23T05:49:24;9.13;;;1.15;;
70406;SDS011;57821;52.202;0.154;2023-02-23T05:51:51;11.77;;;1.65;;
70406;SDS011;57821;52.202;0.154;2023-02-23T05:54:17;6.82;;;1.00;;
70406;SDS011;57821;52.202;0.154;2023-02-23T05:56:44;10.30;;;1.42;;
70406;SDS011;57821;52.202;0.154;2023-02-23T05:59:10;8.27;;;1.23;;
70406;SDS011;57821;52.202;0.154;2023-02-23T06:01:37;11.00;;;1.55;;
70406;SDS011;57821;52.202;0.154;2023-02-23T06:04:04;13.63;;;1.52;;
70406;SDS011;57821;52.202;0.154;2023-02-23T06:06:31;14.48;;;2.35;;
70406;SDS011;57821;52.202;0.154;2023-02-23T06:08:58;10.65;;;1.70;;
70406;SDS011;57821;52.202;0.154;2023-02-23T06:11:24;11.38;;;1.13;;
70406;SDS011;57821;52.202;0.154;2023-02-23T06:13:51;10.65;;;1.30;;
70406;SDS011;57821;52.202;0.154;2023-02-23T06:16:17;12.73;;;1.60;;
70406;SDS011;57821;52.202;0.154;2023-02-23T06:18:44;15.40;;;2.42;;
70406;SDS011;57821;52.202;0.154;2023-02-23T06:21:11;11.38;;;1.85;;
70406;SDS011;57821;52.202;0.154;2023-02-23T06:23:37;10.00;;;1.17;;
70406;SDS011;57821;52.202;0.154;2023-02-23T06:26:04;10.20;;;1.58;;
70406;SDS011;57821;52.202;0.154;2023-02-23T06:28:30;8.23;;;1.40;;
70406;SDS011;57821;52.202;0.154;2023-02-23T06:30:57;12.93;;;1.58;;
70406;SDS011;57821;52.202;0.154;2023-02-23T06:33:24;14.15;;;1.80;;
70406;SDS011;57821;52.202;0.154;2023-02-23T06:35:52;12.95;;;1.60;;
70406;SDS011;57821;52.202;0.154;2023-02-23T06:38:19;16.85;;;1.60;;
70406;SDS011;57821;52.202;0.154;2023-02-23T06:40:46;15.63;;;1.85;;
70406;SDS011;57821;52.202;0.154;2023-02-23T06:43:12;17.27;;;2.67;;
70406;SDS011;57821;52.202;0.154;2023-02-23T06:45:39;14.43;;;1.90;;
70406;SDS011;57821;52.202;0.154;2023-02-23T06:48:05;17.88;;;2.95;;
70406;SDS011;57821;52.202;0.154;2023-02-23T06:50:32;17.17;;;1.75;;
70406;SDS011;57821;52.202;0.154;2023-02-23T06:52:58;15.77;;;2.25;;
70406;SDS011;57821;52.202;0.154;2023-02-23T06:55:25;20.48;;;2.08;;
70406;SDS011;57821;52.202;0.154;2023-02-23T06:57:51;15.27;;;1.88;;
70406;SDS011;57821;52.202;0.154;2023-02-23T07:00:19;16.98;;;1.75;;
70406;SDS011;57821;52.202;0.154;2023-02-23T07:02:46;16.00;;;1.90;;
70406;SDS011;57821;52.202;0.154;2023-02-23T07:05:12;11.75;;;1.40;;
70406;SDS011;57821;52.202;0.154;2023-02-23T07:07:39;15.32;;;1.92;;
70406;SDS011;57821;52.202;0.154;2023-02-23T07:10:05;9.85;;;1.35;;
70406;SDS011;57821;52.202;0.154;2023-02-23T07:12:32;15.18;;;2.58;;
70406;SDS011;57821;52.202;0.154;2023-02-23T07:14:59;7.90;;;1.52;;
70406;SDS011;57821;52.202;0.154;2023-02-23T07:17:25;14.95;;;2.22;;
70406;SDS011;57821;52.202;0.154;2023-02-23T07:19:52;19.65;;;3.33;;
70406;SDS011;57821;52.202;0.154;2023-02-23T07:22:18;8.77;;;1.48;;
70406;SDS011;57821;52.202;0.154;2023-02-23T07:24:45;14.55;;;1.70;;
70406;SDS011;57821;52.202;0.154;2023-02-23T07:27:11;14.82;;;1.92;;
70406;SDS011;57821;52.202;0.154;2023-02-23T07:29:38;14.57;;;1.50;;
70406;SDS011;57821;52.202;0.154;2023-02-23T07:32:04;14.48;;;2.50;;
70406;SDS011;57821;52.202;0.154;2023-02-23T07:34:31;21.25;;;2.88;;
70406;SDS011;57821;52.202;0.154;2023-02-23T07:36:58;13.88;;;2.05;;
70406;SDS011;57821;52.202;0.154;2023-02-23T07:39:24;9.52;;;1.23;;
70406;SDS011;57821;52.202;0.154;2023-02-23T07:41:51;10.32;;;1.38;;
70406;SDS011;57821;52.202;0.154;2023-02-23T07:44:17;14.00;;;1.73;;
70406;SDS011;57821;52.202;0.154;2023-02-23T07:46:44;16.48;;;2.45;;
70406;SDS011;57821;52.202;0.154;2023-02-23T07:49:11;22.52;;;2.00;;
70406;SDS011;57821;52.202;0.154;2023-02-23T07:51:38;13.88;;;1.70;;
70406;SDS011;57821;52.202;0.154;2023-02-23T07:54:05;14.65;;;1.73;;
70406;SDS011;57821;52.202;0.154;2023-02-23T07:56:32;14.32;;;2.47;;
70406;SDS011;57821;52.202;0.154;2023-02-23T07:58:58;16.85;;;2.33;;
70406;SDS011;57821;52.202;0.154;2023-02-23T08:01:25;16.30;;;1.90;;
70406;SDS011;57821;52.202;0.154;2023-02-23T08:03:51;16.67;;;2.00;;
70406;SDS011;57821;52.202;0.154;2023-02-23T08:06:18;16.88;;;3.10;;
70406;SDS011;57821;52.202;0.154;2023-02-23T08:08:45;18.85;;;3.08;;
70406;SDS011;57821;52.202;0.154;2023-02-23T08:11:11;23.70;;;4.60;;
70406;SDS011;57821;52.202;0.154;2023-02-23T08:13:38;14.30;;;1.88;;
70406;SDS011;57821;52.202;0.154;2023-02-23T08:16:05;14.10;;;2.20;;
70406;SDS011;57821;52.202;0.154;2023-02-23T08:18:32;13.63;;;2.60;;
70406;SDS011;57821;52.202;0.154;2023-02-23T08:20:59;13.80;;;2.90;;
70406;SDS011;57821;52.202;0.154;2023-02-23T08:23:31;13.45;;;1.88;;
70406;SDS011;57821;52.202;0.154;2023-02-23T08:25:59;14.98;;;1.90;;
70406;SDS011;57821;52.202;0.154;2023-02-23T08:28:27;18.13;;;2.47;;
70406;SDS011;57821;52.202;0.154;2023-02-23T08:30:54;18.20;;;2.53;;
70406;SDS011;57821;52.202;0.154;2023-02-23T08:33:21;13.43;;;1.48;;
70406;SDS011;57821;52.202;0.154;2023-02-23T08:35:48;14.32;;;2.65;;
70406;SDS011;57821;52.202;0.154;2023-02-23T08:38:14;15.65;;;1.88;;
70406;SDS011;57821;52.202;0.154;2023-02-23T08:40:41;18.55;;;2.22;;
70406;SDS011;57821;52.202;0.154;2023-02-23T08:43:08;18.95;;;3.40;;
70406;SDS011;57821;52.202;0.154;2023-02-23T08:45:35;15.40;;;2.28;;
70406;SDS011;57821;52.202;0.154;2023-02-23T08:48:02;12.60;;;1.80;;
70406;SDS011;57821;52.202;0.154;2023-02-23T08:50:29;13.60;;;1.77;;
70406;SDS011;57821;52.202;0.154;2023-02-23T08:52:56;16.25;;;1.90;;
70406;SDS011;57821;52.202;0.154;2023-02-23T08:55:22;14.25;;;1.67;;
70406;SDS011;57821;52.202;0.154;2023-02-23T08:57:49;20.83;;;2.70;;
70406;SDS011;57821;52.202;0.154;2023-02-23T09:00:15;15.48;;;1.80;;
70406;SDS011;57821;52.202;0.154;2023-02-23T09:02:43;14.45;;;1.95;;
70406;SDS011;57821;52.202;0.154;2023-02-23T09:05:10;15.77;;;2.15;;
70406;SDS011;57821;52.202;0.154;2023-02-23T09:07:38;14.07;;;2.42;;
70406;SDS011;57821;52.202;0.154;2023-02-23T09:10:05;14.30;;;2.15;;
70406;SDS011;57821;52.202;0.154;2023-02-23T09:12:33;19.58;;;2.58;;
70406;SDS011;57821;52.202;0.154;2023-02-23T09:14:59;11.98;;;2.00;;
70406;SDS011;57821;52.202;0.154;2023-02-23T09:17:26;11.07;;;2.40;;
70406;SDS011;57821;52.202;0.154;2023-02-23T09:19:52;14.55;;;2.95;;
70406;SDS011;57821;52.202;0.154;2023-02-23T09:22:19;16.08;;;5.07;;
70406;SDS011;57821;52.202;0.154;2023-02-23T09:24:46;18.33;;;4.47;;
70406;SDS011;57821;52.202;0.154;2023-02-23T09:27:12;15.80;;;4.10;;
70406;SDS011;57821;52.202;0.154;2023-02-23T09:29:39;12.57;;;2.78;;
70406;SDS011;57821;52.202;0.154;2023-02-23T09:32:06;19.17;;;4.57;;
70406;SDS011;57821;52.202;0.154;2023-02-23T09:34:33;19.73;;;5.00;;
70406;SDS011;57821;52.202;0.154;2023-02-23T09:37:02;20.55;;;5.25;;
70406;SDS011;57821;52.202;0.154;2023-02-23T09:39:30;22.10;;;6.40;;
70406;SDS011;57821;52.202;0.154;2023-02-23T09:42:23;18.60;;;5.63;;
70406;SDS011;57821;52.202;0.154;2023-02-23T09:50:31;16.63;;;3.65;;
70406;SDS011;57821;52.202;0.154;2023-02-23T09:53:00;19.98;;;5.25;;
70406;SDS011;57821;52.202;0.154;2023-02-23T09:55:30;20.35;;;5.05;;
70406;SDS011;57821;52.202;0.154;2023-02-23T09:58:01;17.58;;;3.25;;
70406;SDS011;57821;52.202;0.154;2023-02-23T10:00:36;19.77;;;4.43;;
70406;SDS011;57821;52.202;0.154;2023-02-23T10:03:22;13.35;;;3.35;;
70406;SDS011;57821;52.202;0.154;2023-02-23T10:05:55;16.40;;;3.45;;
70406;SDS011;57821;52.202;0.154;2023-02-23T10:11:17;18.23;;;4.60;;
70406;SDS011;57821;52.202;0.154;2023-02-23T10:13:49;21.10;;;3.63;;
70406;SDS011;57821;52.202;0.154;2023-02-23T10:16:33;20.50;;;3.50;;
70406;SDS011;57821;52.202;0.154;2023-02-23T10:22:05;20.85;;;4.47;;
70406;SDS011;57821;52.202;0.154;2023-02-23T10:24:51;46.13;;;18.23;;
70406;SDS011;57821;52.202;0.154;2023-02-23T10:27:23;27.58;;;5.75;;
70406;SDS011;57821;52.202;0.154;2023-02-23T10:29:58;18.92;;;4.00;;
70406;SDS011;57821;52.202;0.154;2023-02-23T10:32:40;14.27;;;3.25;;
70406;SDS011;57821;52.202;0.154;2023-02-23T10:35:18;23.67;;;6.63;;
70406;SDS011;57821;52.202;0.154;2023-02-23T10:37:46;14.07;;;4.60;;
70406;SDS011;57821;52.202;0.154;2023-02-23T10:40:15;18.05;;;4.35;;
70406;SDS011;57821;52.202;0.154;2023-02-23T10:42:44;16.75;;;3.45;;
70406;SDS011;57821;52.202;0.154;2023-02-23T10:45:15;20.35;;;3.85;;
70406;SDS011;57821;52.202;0.154;2023-02-23T10:47:43;16.98;;;3.10;;
70406;SDS011;57821;52.202;0.154;2023-02-23T10:50:10;15.38;;;2.83;;
70406;SDS011;57821;52.202;0.154;2023-02-23T10:52:40;17.08;;;3.75;;
70406;SDS011;57821;52.202;0.154;2023-02-23T10:55:23;17.77;;;2.85;;
70406;SDS011;57821;52.202;0.154;2023-02-23T10:58:14;24.52;;;2.97;;
70406;SDS011;57821;52.202;0.154;2023-02-23T11:00:51;21.20;;;3.10;;
70406;SDS011;57821;52.202;0.154;2023-02-23T11:03:25;13.90;;;2.80;;
70406;SDS011;57821;52.202;0.154;2023-02-23T11:05:57;18.35;;;3.40;;
70406;SDS011;57821;52.202;0.154;2023-02-23T11:11:06;18.45;;;3.33;;
70406;SDS011;57821;52.202;0.154;2023-02-23T11:13:59;13.98;;;2.03;;
70406;SDS011;57821;52.202;0.154;2023-02-23T11:16:41;13.50;;;2.35;;
70406;SDS011;57821;52.202;0.154;2023-02-23T11:19:13;20.20;;;3.72;;
70406;SDS011;57821;52.202;0.154;2023-02-23T11:21:50;12.55;;;2.20;;
70406;SDS011;57821;52.202;0.154;2023-02-23T11:24:20;16.13;;;4.00;;
70406;SDS011;57821;52.202;0.154;2023-02-23T11:26:52;11.43;;;2.30;;
70406;SDS011;57821;52.202;0.154;2023-02-23T11:31:48;11.82;;;2.20;;
70406;SDS011;57821;52.202;0.154;2023-02-23T11:34:21;19.20;;;2.80;;
70406;SDS011;57821;52.202;0.154;2023-02-23T11:37:07;17.42;;;2.85;;
70406;SDS011;57821;52.202;0.154;2023-02-23T11:39:53;20.75;;;2.63;;
70406;SDS011;57821;52.202;0.154;2023-02-23T11:42:22;15.80;;;3.50;;
70406;SDS011;57821;52.202;0.154;2023-02-23T11:47:45;18.63;;;3.10;;
70406;SDS011;57821;52.202;0.154;2023-02-23T11:50:28;16.85;;;2.50;;
70406;SDS011;57821;52.202;0.154;2023-02-23T11:55:23;14.35;;;2.50;;
70406;SDS011;57821;52.202;0.154;2023-02-23T11:57:50;17.63;;;2.25;;
70406;SDS011;57821;52.202;0.154;2023-02-23T12:00:25;22.83;;;4.47;;
70406;SDS011;57821;52.202;0.154;2023-02-23T12:02:56;20.00;;;3.35;;
70406;SDS011;57821;52.202;0.154;2023-02-23T12:05:27;19.13;;;3.15;;
70406;SDS011;57821;52.202;0.154;2023-02-23T12:08:14;21.05;;;3.50;;
70406;SDS011;57821;52.202;0.154;2023-02-23T12:10:53;22.48;;;4.28;;
70406;SDS011;57821;52.202;0.154;2023-02-23T12:13:27;23.95;;;5.03;;
70406;SDS011;57821;52.202;0.154;2023-02-23T12:18:41;23.77;;;4.10;;
70406;SDS011;57821;52.202;0.154;2023-02-23T12:26:48;21.77;;;3.20;;
70406;SDS011;57821;52.202;0.154;2023-02-23T12:29:20;22.35;;;3.85;;
70406;SDS011;57821;52.202;0.154;2023-02-23T12:32:04;20.58;;;3.47;;
70406;SDS011;57821;52.202;0.154;2023-02-23T12:34:43;14.93;;;3.47;;
70406;SDS011;57821;52.202;0.154;2023-02-23T12:37:19;16.65;;;2.97;;
70406;SDS011;57821;52.202;0.154;2023-02-23T12:39:57;22.27;;;3.78;;
70406;SDS011;57821;52.202;0.154;2023-02-23T12:42:55;25.63;;;6.65;;
70406;SDS011;57821;52.202;0.154;2023-02-23T12:45:25;11.73;;;2.38;;
70406;SDS011;57821;52.202;0.154;2023-02-23T12:50:36;12.60;;;2.00;;
70406;SDS011;57821;52.202;0.154;2023-02-23T12:58:31;15.77;;;2.75;;
70406;SDS011;57821;52.202;0.154;2023-02-23T13:01:26;15.27;;;2.78;;
70406;SDS011;57821;52.202;0.154;2023-02-23T13:09:35;21.38;;;3.00;;
70406;SDS011;57821;52.202;0.154;2023-02-23T13:12:51;31.77;;;11.48;;
70406;SDS011;57821;52.202;0.154;2023-02-23T13:20:49;29.70;;;11.85;;
70406;SDS011;57821;52.202;0.154;2023-02-23T13:23:24;26.90;;;12.68;;
70406;SDS011;57821;52.202;0.154;2023-02-23T13:28:53;32.08;;;12.27;;
70406;SDS011;57821;52.202;0.154;2023-02-23T13:31:31;20.48;;;7.72;;
70406;SDS011;57821;52.202;0.154;2023-02-23T13:34:02;147.32;;;78.55;;
70406;SDS011;57821;52.202;0.154;2023-02-23T13:36:32;122.15;;;68.68;;
70406;SDS011;57821;52.202;0.154;2023-02-23T13:39:14;101.03;;;56.88;;
70406;SDS011;57821;52.202;0.154;2023-02-23T13:44:57;25.55;;;4.68;;
70406;SDS011;57821;52.202;0.154;2023-02-23T13:47:46;21.60;;;4.68;;
70406;SDS011;57821;52.202;0.154;2023-02-23T13:56:18;48.88;;;15.02;;
70406;SDS011;57821;52.202;0.154;2023-02-23T14:01:21;39.05;;;16.10;;
70406;SDS011;57821;52.202;0.154;2023-02-23T14:03:55;33.28;;;8.98;;
70406;SDS011;57821;52.202;0.154;2023-02-23T14:06:25;29.40;;;6.88;;
70406;SDS011;57821;52.202;0.154;2023-02-23T14:08:57;26.85;;;8.80;;
70406;SDS011;57821;52.202;0.154;2023-02-23T14:11:40;25.60;;;8.20;;
70406;SDS011;57821;52.202;0.154;2023-02-23T14:14:08;31.77;;;11.70;;
70406;SDS011;57821;52.202;0.154;2023-02-23T14:16:38;43.30;;;16.35;;
70406;SDS011;57821;52.202;0.154;2023-02-23T14:19:07;30.35;;;6.82;;
70406;SDS011;57821;52.202;0.154;2023-02-23T14:21:44;17.30;;;5.60;;
70406;SDS011;57821;52.202;0.154;2023-02-23T14:24:22;61.00;;;31.95;;
70406;SDS011;57821;52.202;0.154;2023-02-23T14:29:27;34.17;;;13.82;;
70406;SDS011;57821;52.202;0.154;2023-02-23T14:32:26;18.40;;;4.43;;
70406;SDS011;57821;52.202;0.154;2023-02-23T14:34:51;22.27;;;5.70;;
70406;SDS011;57821;52.202;0.154;2023-02-23T14:37:35;21.58;;;5.60;;
70406;SDS011;57821;52.202;0.154;2023-02-23T14:40:13;22.73;;;5.85;;
70406;SDS011;57821;52.202;0.154;2023-02-23T14:42:48;22.85;;;6.00;;
70406;SDS011;57821;52.202;0.154;2023-02-23T14:45:35;23.42;;;5.00;;
70406;SDS011;57821;52.202;0.154;2023-02-23T14:48:08;23.13;;;4.93;;
70406;SDS011;57821;52.202;0.154;2023-02-23T14:50:37;28.67;;;9.02;;
70406;SDS011;57821;52.202;0.154;2023-02-23T14:53:05;27.73;;;6.97;;
70406;SDS011;57821;52.202;0.154;2023-02-23T14:55:39;22.40;;;3.38;;
70406;SDS011;57821;52.202;0.154;2023-02-23T14:58:23;21.35;;;3.45;;
70406;SDS011;57821;52.202;0.154;2023-02-23T15:00:52;21.15;;;2.50;;
70406;SDS011;57821;52.202;0.154;2023-02-23T15:03:18;25.60;;;3.90;;
70406;SDS011;57821;52.202;0.154;2023-02-23T15:05:49;18.17;;;2.33;;
70406;SDS011;57821;52.202;0.154;2023-02-23T15:08:23;19.40;;;3.28;;
70406;SDS011;57821;52.202;0.154;2023-02-23T15:10:57;18.50;;;3.38;;
70406;SDS011;57821;52.202;0.154;2023-02-23T15:14:10;20.00;;;2.67;;
70406;SDS011;57821;52.202;0.154;2023-02-23T15:16:29;16.67;;;3.80;;
70406;SDS011;57821;52.202;0.154;2023-02-23T15:18:58;21.50;;;3.00;;
70406;SDS011;57821;52.202;0.154;2023-02-23T15:21:26;21.85;;;2.75;;
70406;SDS011;57821;52.202;0.154;2023-02-23T15:24:08;17.88;;;2.88;;
70406;SDS011;57821;52.202;0.154;2023-02-23T15:26:37;20.52;;;3.20;;
70406;SDS011;57821;52.202;0.154;2023-02-23T15:29:15;15.75;;;3.00;;
70406;SDS011;57821;52.202;0.154;2023-02-23T15:31:44;18.67;;;3.35;;
70406;SDS011;57821;52.202;0.154;2023-02-23T15:34:12;19.45;;;2.03;;
70406;SDS011;57821;52.202;0.154;2023-02-23T15:36:39;17.75;;;2.78;;
70406;SDS011;57821;52.202;0.154;2023-02-23T15:39:06;16.83;;;2.72;;
70406;SDS011;57821;52.202;0.154;2023-02-23T15:41:39;15.75;;;2.45;;
70406;SDS011;57821;52.202;0.154;2023-02-23T15:47:20;25.13;;;4.77;;
70406;SDS011;57821;52.202;0.154;2023-02-23T15:49:49;30.30;;;4.68;;
70406;SDS011;57821;52.202;0.154;2023-02-23T15:52:25;15.25;;;2.63;;
70406;SDS011;57821;52.202;0.154;2023-02-23T15:54:56;12.35;;;2.55;;
70406;SDS011;57821;52.202;0.154;2023-02-23T15:57:31;21.13;;;2.55;;
70406;SDS011;57821;52.202;0.154;2023-02-23T16:00:00;21.38;;;4.10;;
70406;SDS011;57821;52.202;0.154;2023-02-23T16:02:34;21.25;;;3.28;;
70406;SDS011;57821;52.202;0.154;2023-02-23T16:05:07;21.65;;;2.80;;
70406;SDS011;57821;52.202;0.154;2023-02-23T16:07:43;12.05;;;2.97;;
70406;SDS011;57821;52.202;0.154;2023-02-23T16:10:23;23.88;;;3.38;;
70406;SDS011;57821;52.202;0.154;2023-02-23T16:12:51;15.63;;;3.20;;
70406;SDS011;57821;52.202;0.154;2023-02-23T16:15:25;23.35;;;3.40;;
70406;SDS011;57821;52.202;0.154;2023-02-23T16:18:00;13.85;;;2.30;;
70406;SDS011;57821;52.202;0.154;2023-02-23T16:20:37;23.80;;;4.45;;
70406;SDS011;57821;52.202;0.154;2023-02-23T16:23:09;18.33;;;2.15;;
70406;SDS011;57821;52.202;0.154;2023-02-23T16:25:47;15.38;;;3.53;;
70406;SDS011;57821;52.202;0.154;2023-02-23T16:28:19;23.40;;;3.45;;
70406;SDS011;57821;52.202;0.154;2023-02-23T16:30:50;21.25;;;2.70;;
70406;SDS011;57821;52.202;0.154;2023-02-23T16:33:24;16.38;;;3.25;;
70406;SDS011;57821;52.202;0.154;2023-02-23T16:35:53;27.45;;;3.50;;
70406;SDS011;57821;52.202;0.154;2023-02-23T16:38:34;26.02;;;2.95;;
70406;SDS011;57821;52.202;0.154;2023-02-23T16:41:19;20.42;;;3.40;;
70406;SDS011;57821;52.202;0.154;2023-02-23T16:43:48;15.10;;;2.83;;
70406;SDS011;57821;52.202;0.154;2023-02-23T16:46:16;15.23;;;2.17;;
70406;SDS011;57821;52.202;0.154;2023-02-23T16:48:43;20.30;;;2.85;;
70406;SDS011;57821;52.202;0.154;2023-02-23T16:51:12;17.25;;;2.28;;
70406;SDS011;57821;52.202;0.154;2023-02-23T16:53:43;13.25;;;2.53;;
70406;SDS011;57821;52.202;0.154;2023-02-23T16:56:11;23.70;;;2.70;;